sensor_id;sensor_type;location;lat;lon;timestamp;temperature;humidity
16392;DHT22;8305;-33.882;151.134;2023-01-26T00:01:33;29.60;99.90
16392;DHT22;8305;-33.882;151.134;2023-01-26T00:04:04;29.60;99.90
16392;DHT22;8305;-33.882;151.134;2023-01-26T00:06:37;29.70;99.90
16392;DHT22;8305;-33.882;151.134;2023-01-26T00:09:12;29.80;99.90
16392;DHT22;8305;-33.882;151.134;2023-01-26T00:11:44;29.90;99.90
16392;DHT22;8305;-33.882;151.134;2023-01-26T00:14:15;30.10;99.90
16392;DHT22;8305;-33.882;151.134;2023-01-26T00:16:48;30.10;99.90
16392;DHT22;8305;-33.882;151.134;2023-01-26T00:19:20;30.30;99.90
16392;DHT22;8305;-33.882;151.134;2023-01-26T00:21:51;30.40;99.90
16392;DHT22;8305;-33.882;151.134;2023-01-26T00:24:22;30.40;99.90
16392;DHT22;8305;-33.882;151.134;2023-01-26T00:26:56;30.50;99.90
16392;DHT22;8305;-33.882;151.134;2023-01-26T00:29:27;30.60;99.90
16392;DHT22;8305;-33.882;151.134;2023-01-26T00:32:00;30.70;99.90
16392;DHT22;8305;-33.882;151.134;2023-01-26T00:34:31;30.80;99.90
16392;DHT22;8305;-33.882;151.134;2023-01-26T00:37:02;30.90;99.90
16392;DHT22;8305;-33.882;151.134;2023-01-26T00:39:34;31.00;99.90
16392;DHT22;8305;-33.882;151.134;2023-01-26T00:42:05;31.10;99.90
16392;DHT22;8305;-33.882;151.134;2023-01-26T00:44:37;31.20;99.90
16392;DHT22;8305;-33.882;151.134;2023-01-26T00:47:12;31.40;99.90
16392;DHT22;8305;-33.882;151.134;2023-01-26T00:49:43;31.40;99.90
16392;DHT22;8305;-33.882;151.134;2023-01-26T00:52:14;31.60;99.90
16392;DHT22;8305;-33.882;151.134;2023-01-26T00:54:45;31.70;99.90
16392;DHT22;8305;-33.882;151.134;2023-01-26T00:57:17;31.80;99.90
16392;DHT22;8305;-33.882;151.134;2023-01-26T00:59:48;31.90;99.90
16392;DHT22;8305;-33.882;151.134;2023-01-26T01:02:21;32.10;99.90
16392;DHT22;8305;-33.882;151.134;2023-01-26T01:04:52;32.20;99.90
16392;DHT22;8305;-33.882;151.134;2023-01-26T01:07:23;32.30;99.90
16392;DHT22;8305;-33.882;151.134;2023-01-26T01:09:54;32.40;99.90
16392;DHT22;8305;-33.882;151.134;2023-01-26T01:12:27;32.50;99.90
16392;DHT22;8305;-33.882;151.134;2023-01-26T01:15:01;32.50;99.90
16392;DHT22;8305;-33.882;151.134;2023-01-26T01:17:34;32.70;99.90
16392;DHT22;8305;-33.882;151.134;2023-01-26T04:42:03;27.80;99.90
16392;DHT22;8305;-33.882;151.134;2023-01-26T04:44:34;27.60;99.90
16392;DHT22;8305;-33.882;151.134;2023-01-26T04:47:06;27.50;99.90
16392;DHT22;8305;-33.882;151.134;2023-01-26T04:49:36;27.40;99.90
16392;DHT22;8305;-33.882;151.134;2023-01-26T04:52:07;27.40;99.90
16392;DHT22;8305;-33.882;151.134;2023-01-26T04:54:38;27.40;99.90
16392;DHT22;8305;-33.882;151.134;2023-01-26T04:57:11;27.30;99.90
16392;DHT22;8305;-33.882;151.134;2023-01-26T04:59:42;27.30;99.90
16392;DHT22;8305;-33.882;151.134;2023-01-26T05:02:13;27.30;99.90
16392;DHT22;8305;-33.882;151.134;2023-01-26T05:04:44;27.20;99.90
16392;DHT22;8305;-33.882;151.134;2023-01-26T05:07:15;27.20;99.90
16392;DHT22;8305;-33.882;151.134;2023-01-26T05:09:46;27.40;99.90
16392;DHT22;8305;-33.882;151.134;2023-01-26T05:12:21;27.30;99.90
16392;DHT22;8305;-33.882;151.134;2023-01-26T05:15:08;27.50;99.90
16392;DHT22;8305;-33.882;151.134;2023-01-26T05:17:39;27.60;99.90
16392;DHT22;8305;-33.882;151.134;2023-01-26T05:20:11;27.70;99.90
16392;DHT22;8305;-33.882;151.134;2023-01-26T05:22:42;27.80;99.90
16392;DHT22;8305;-33.882;151.134;2023-01-26T05:25:13;27.90;99.90
16392;DHT22;8305;-33.882;151.134;2023-01-26T05:27:46;27.90;99.90
16392;DHT22;8305;-33.882;151.134;2023-01-26T05:30:18;28.00;99.90
16392;DHT22;8305;-33.882;151.134;2023-01-26T05:32:49;28.10;99.90
16392;DHT22;8305;-33.882;151.134;2023-01-26T05:35:20;28.20;99.90
16392;DHT22;8305;-33.882;151.134;2023-01-26T05:37:55;28.20;99.90
16392;DHT22;8305;-33.882;151.134;2023-01-26T05:40:26;28.30;99.90
16392;DHT22;8305;-33.882;151.134;2023-01-26T05:43:02;28.30;99.90
16392;DHT22;8305;-33.882;151.134;2023-01-26T05:45:36;28.30;99.90
16392;DHT22;8305;-33.882;151.134;2023-01-26T05:48:07;28.30;99.90
16392;DHT22;8305;-33.882;151.134;2023-01-26T05:50:38;28.40;99.90
16392;DHT22;8305;-33.882;151.134;2023-01-26T05:53:09;28.50;99.90
16392;DHT22;8305;-33.882;151.134;2023-01-26T05:55:40;28.50;99.90
16392;DHT22;8305;-33.882;151.134;2023-01-26T05:58:13;28.60;99.90
16392;DHT22;8305;-33.882;151.134;2023-01-26T06:00:44;28.70;99.90
16392;DHT22;8305;-33.882;151.134;2023-01-26T06:03:15;28.70;99.90
16392;DHT22;8305;-33.882;151.134;2023-01-26T06:05:52;28.70;99.90
16392;DHT22;8305;-33.882;151.134;2023-01-26T06:08:26;28.70;99.90
16392;DHT22;8305;-33.882;151.134;2023-01-26T06:10:59;28.70;99.90
16392;DHT22;8305;-33.882;151.134;2023-01-26T06:13:34;28.70;99.90
16392;DHT22;8305;-33.882;151.134;2023-01-26T06:16:08;28.70;99.90
16392;DHT22;8305;-33.882;151.134;2023-01-26T06:18:39;28.60;99.90
16392;DHT22;8305;-33.882;151.134;2023-01-26T06:21:10;28.60;99.90
16392;DHT22;8305;-33.882;151.134;2023-01-26T06:23:41;28.50;99.90
16392;DHT22;8305;-33.882;151.134;2023-01-26T06:26:12;28.50;99.90
16392;DHT22;8305;-33.882;151.134;2023-01-26T06:28:45;28.50;99.90
16392;DHT22;8305;-33.882;151.134;2023-01-26T06:31:16;28.50;99.90
16392;DHT22;8305;-33.882;151.134;2023-01-26T06:33:47;28.60;99.90
16392;DHT22;8305;-33.882;151.134;2023-01-26T06:36:18;28.50;99.90
16392;DHT22;8305;-33.882;151.134;2023-01-26T06:38:49;28.40;99.90
16392;DHT22;8305;-33.882;151.134;2023-01-26T06:41:21;28.40;99.90
16392;DHT22;8305;-33.882;151.134;2023-01-26T06:43:54;28.30;99.90
16392;DHT22;8305;-33.882;151.134;2023-01-26T06:46:25;28.30;99.90
16392;DHT22;8305;-33.882;151.134;2023-01-26T06:48:56;28.20;99.90
16392;DHT22;8305;-33.882;151.134;2023-01-26T06:51:51;28.10;99.90
16392;DHT22;8305;-33.882;151.134;2023-01-26T06:54:24;28.10;99.90
16392;DHT22;8305;-33.882;151.134;2023-01-26T06:56:55;28.00;99.90
16392;DHT22;8305;-33.882;151.134;2023-01-26T06:59:28;27.90;99.90
16392;DHT22;8305;-33.882;151.134;2023-01-26T07:01:59;27.80;99.90
16392;DHT22;8305;-33.882;151.134;2023-01-26T07:04:30;27.70;99.90
16392;DHT22;8305;-33.882;151.134;2023-01-26T07:07:00;27.50;99.90
16392;DHT22;8305;-33.882;151.134;2023-01-26T07:09:31;27.40;99.90
16392;DHT22;8305;-33.882;151.134;2023-01-26T07:12:02;27.30;99.90
16392;DHT22;8305;-33.882;151.134;2023-01-26T07:14:35;27.20;99.90
16392;DHT22;8305;-33.882;151.134;2023-01-26T07:17:06;27.20;99.90
16392;DHT22;8305;-33.882;151.134;2023-01-26T07:19:37;27.00;99.90
16392;DHT22;8305;-33.882;151.134;2023-01-26T07:22:08;27.00;99.90
16392;DHT22;8305;-33.882;151.134;2023-01-26T07:24:39;26.90;99.90
16392;DHT22;8305;-33.882;151.134;2023-01-26T07:27:10;26.90;99.90
16392;DHT22;8305;-33.882;151.134;2023-01-26T07:29:43;26.80;99.90
16392;DHT22;8305;-33.882;151.134;2023-01-26T07:32:14;26.80;99.90
16392;DHT22;8305;-33.882;151.134;2023-01-26T07:34:45;26.80;99.90
16392;DHT22;8305;-33.882;151.134;2023-01-26T07:37:16;26.80;99.90
16392;DHT22;8305;-33.882;151.134;2023-01-26T07:39:47;26.80;99.90
16392;DHT22;8305;-33.882;151.134;2023-01-26T07:42:18;26.80;99.90
16392;DHT22;8305;-33.882;151.134;2023-01-26T07:44:51;26.90;99.90
16392;DHT22;8305;-33.882;151.134;2023-01-26T07:47:22;26.90;99.90
16392;DHT22;8305;-33.882;151.134;2023-01-26T07:49:53;26.90;99.90
16392;DHT22;8305;-33.882;151.134;2023-01-26T07:52:25;26.90;99.90
16392;DHT22;8305;-33.882;151.134;2023-01-26T07:54:58;26.90;99.90
16392;DHT22;8305;-33.882;151.134;2023-01-26T07:57:28;26.90;99.90
16392;DHT22;8305;-33.882;151.134;2023-01-26T08:00:03;26.80;99.90
16392;DHT22;8305;-33.882;151.134;2023-01-26T08:02:34;26.80;99.90
16392;DHT22;8305;-33.882;151.134;2023-01-26T08:05:06;26.80;99.90
16392;DHT22;8305;-33.882;151.134;2023-01-26T08:07:37;26.70;99.90
16392;DHT22;8305;-33.882;151.134;2023-01-26T08:10:08;26.70;99.90
16392;DHT22;8305;-33.882;151.134;2023-01-26T08:12:41;26.60;99.90
16392;DHT22;8305;-33.882;151.134;2023-01-26T08:15:14;26.60;99.90
16392;DHT22;8305;-33.882;151.134;2023-01-26T08:17:45;26.60;99.90
16392;DHT22;8305;-33.882;151.134;2023-01-26T08:20:16;26.50;99.90
16392;DHT22;8305;-33.882;151.134;2023-01-26T08:22:48;26.50;99.90
16392;DHT22;8305;-33.882;151.134;2023-01-26T08:25:19;26.50;99.90
16392;DHT22;8305;-33.882;151.134;2023-01-26T08:27:50;26.50;99.90
16392;DHT22;8305;-33.882;151.134;2023-01-26T08:30:22;26.50;99.90
16392;DHT22;8305;-33.882;151.134;2023-01-26T08:32:53;26.50;99.90
16392;DHT22;8305;-33.882;151.134;2023-01-26T08:35:24;26.50;99.90
16392;DHT22;8305;-33.882;151.134;2023-01-26T08:37:55;26.50;99.90
16392;DHT22;8305;-33.882;151.134;2023-01-26T08:40:26;26.50;99.90
16392;DHT22;8305;-33.882;151.134;2023-01-26T08:43:00;26.50;99.90
16392;DHT22;8305;-33.882;151.134;2023-01-26T08:45:33;26.40;99.90
16392;DHT22;8305;-33.882;151.134;2023-01-26T08:48:04;26.40;99.90
16392;DHT22;8305;-33.882;151.134;2023-01-26T08:50:35;26.40;99.90
16392;DHT22;8305;-33.882;151.134;2023-01-26T08:53:06;26.40;99.90
16392;DHT22;8305;-33.882;151.134;2023-01-26T08:55:37;26.30;99.90
16392;DHT22;8305;-33.882;151.134;2023-01-26T08:58:09;26.20;99.90
16392;DHT22;8305;-33.882;151.134;2023-01-26T09:00:42;26.10;99.90
16392;DHT22;8305;-33.882;151.134;2023-01-26T09:03:12;26.00;99.90
16392;DHT22;8305;-33.882;151.134;2023-01-26T09:05:43;25.80;99.90
16392;DHT22;8305;-33.882;151.134;2023-01-26T09:08:14;25.70;99.90
16392;DHT22;8305;-33.882;151.134;2023-01-26T09:10:45;25.60;99.90
16392;DHT22;8305;-33.882;151.134;2023-01-26T09:13:16;25.50;99.90
16392;DHT22;8305;-33.882;151.134;2023-01-26T09:15:50;25.50;99.90
16392;DHT22;8305;-33.882;151.134;2023-01-26T09:18:21;25.40;99.90
16392;DHT22;8305;-33.882;151.134;2023-01-26T09:20:52;25.30;99.90
16392;DHT22;8305;-33.882;151.134;2023-01-26T09:23:23;25.30;99.90
16392;DHT22;8305;-33.882;151.134;2023-01-26T09:25:54;25.20;99.90
16392;DHT22;8305;-33.882;151.134;2023-01-26T09:28:25;25.20;99.90
16392;DHT22;8305;-33.882;151.134;2023-01-26T09:31:01;25.10;99.90
16392;DHT22;8305;-33.882;151.134;2023-01-26T09:33:32;25.00;99.90
16392;DHT22;8305;-33.882;151.134;2023-01-26T09:36:05;24.90;99.90
16392;DHT22;8305;-33.882;151.134;2023-01-26T09:38:36;24.80;99.90
16392;DHT22;8305;-33.882;151.134;2023-01-26T09:41:28;24.80;99.90
16392;DHT22;8305;-33.882;151.134;2023-01-26T09:44:05;24.80;99.90
16392;DHT22;8305;-33.882;151.134;2023-01-26T09:46:50;24.80;99.90
16392;DHT22;8305;-33.882;151.134;2023-01-26T09:49:28;24.80;99.90
16392;DHT22;8305;-33.882;151.134;2023-01-26T09:52:07;24.80;99.90
16392;DHT22;8305;-33.882;151.134;2023-01-26T09:54:42;24.80;99.90
16392;DHT22;8305;-33.882;151.134;2023-01-26T09:57:18;24.80;99.90
16392;DHT22;8305;-33.882;151.134;2023-01-26T09:59:53;24.80;99.90
16392;DHT22;8305;-33.882;151.134;2023-01-26T10:02:40;24.90;99.90
16392;DHT22;8305;-33.882;151.134;2023-01-26T10:05:17;24.80;99.90
16392;DHT22;8305;-33.882;151.134;2023-01-26T10:07:51;24.90;99.90
16392;DHT22;8305;-33.882;151.134;2023-01-26T10:10:27;24.80;99.90
16392;DHT22;8305;-33.882;151.134;2023-01-26T10:13:00;24.90;99.90
16392;DHT22;8305;-33.882;151.134;2023-01-26T10:15:34;24.80;99.90
16392;DHT22;8305;-33.882;151.134;2023-01-26T10:18:11;24.80;99.90
16392;DHT22;8305;-33.882;151.134;2023-01-26T10:20:50;24.80;99.90
16392;DHT22;8305;-33.882;151.134;2023-01-26T10:23:26;24.80;99.90
16392;DHT22;8305;-33.882;151.134;2023-01-26T10:26:08;24.80;99.90
16392;DHT22;8305;-33.882;151.134;2023-01-26T10:28:41;24.80;99.90
16392;DHT22;8305;-33.882;151.134;2023-01-26T10:31:15;24.70;99.90
16392;DHT22;8305;-33.882;151.134;2023-01-26T10:33:53;24.70;99.90
16392;DHT22;8305;-33.882;151.134;2023-01-26T10:36:24;24.70;99.90
16392;DHT22;8305;-33.882;151.134;2023-01-26T10:39:03;24.70;99.90
16392;DHT22;8305;-33.882;151.134;2023-01-26T10:41:35;24.60;99.90
16392;DHT22;8305;-33.882;151.134;2023-01-26T10:44:24;24.70;99.90
16392;DHT22;8305;-33.882;151.134;2023-01-26T10:47:05;24.60;99.90
16392;DHT22;8305;-33.882;151.134;2023-01-26T10:49:38;24.60;99.90
16392;DHT22;8305;-33.882;151.134;2023-01-26T10:52:16;24.60;99.90
16392;DHT22;8305;-33.882;151.134;2023-01-26T10:54:48;24.60;99.90
16392;DHT22;8305;-33.882;151.134;2023-01-26T10:57:26;24.50;99.90
16392;DHT22;8305;-33.882;151.134;2023-01-26T10:59:59;24.40;99.90
16392;DHT22;8305;-33.882;151.134;2023-01-26T11:02:35;24.30;99.90
16392;DHT22;8305;-33.882;151.134;2023-01-26T11:05:19;24.10;99.90
16392;DHT22;8305;-33.882;151.134;2023-01-26T11:07:51;24.10;99.90
16392;DHT22;8305;-33.882;151.134;2023-01-26T11:10:29;24.00;99.90
16392;DHT22;8305;-33.882;151.134;2023-01-26T11:13:23;23.90;99.90
16392;DHT22;8305;-33.882;151.134;2023-01-26T11:16:05;23.90;99.90
16392;DHT22;8305;-33.882;151.134;2023-01-26T11:18:50;23.80;99.90
16392;DHT22;8305;-33.882;151.134;2023-01-26T11:21:27;23.70;99.90
16392;DHT22;8305;-33.882;151.134;2023-01-26T11:24:02;23.70;99.90
16392;DHT22;8305;-33.882;151.134;2023-01-26T11:27:00;23.60;99.90
16392;DHT22;8305;-33.882;151.134;2023-01-26T11:29:50;23.60;99.90
16392;DHT22;8305;-33.882;151.134;2023-01-26T11:32:28;23.60;99.90
16392;DHT22;8305;-33.882;151.134;2023-01-26T11:35:11;23.60;99.90
16392;DHT22;8305;-33.882;151.134;2023-01-26T11:37:50;23.50;99.90
16392;DHT22;8305;-33.882;151.134;2023-01-26T11:40:34;23.50;99.90
16392;DHT22;8305;-33.882;151.134;2023-01-26T11:43:44;23.50;99.90
16392;DHT22;8305;-33.882;151.134;2023-01-26T11:49:21;23.50;99.90
16392;DHT22;8305;-33.882;151.134;2023-01-26T11:52:06;23.40;99.90
16392;DHT22;8305;-33.882;151.134;2023-01-26T11:55:05;23.30;99.90
16392;DHT22;8305;-33.882;151.134;2023-01-26T11:57:46;23.30;99.90
16392;DHT22;8305;-33.882;151.134;2023-01-26T12:00:22;23.30;99.90
16392;DHT22;8305;-33.882;151.134;2023-01-26T12:03:00;23.30;99.90
16392;DHT22;8305;-33.882;151.134;2023-01-26T12:05:43;23.30;99.90
16392;DHT22;8305;-33.882;151.134;2023-01-26T12:08:19;23.30;99.90
16392;DHT22;8305;-33.882;151.134;2023-01-26T12:11:00;23.30;99.90
16392;DHT22;8305;-33.882;151.134;2023-01-26T12:14:00;23.20;99.90
16392;DHT22;8305;-33.882;151.134;2023-01-26T12:16:39;23.20;99.90
16392;DHT22;8305;-33.882;151.134;2023-01-26T12:19:16;23.20;99.90
16392;DHT22;8305;-33.882;151.134;2023-01-26T12:21:50;23.20;99.90
16392;DHT22;8305;-33.882;151.134;2023-01-26T12:24:26;23.20;99.90
16392;DHT22;8305;-33.882;151.134;2023-01-26T12:27:05;23.20;99.90
16392;DHT22;8305;-33.882;151.134;2023-01-26T12:29:45;23.10;99.90
16392;DHT22;8305;-33.882;151.134;2023-01-26T12:32:17;23.10;99.90
16392;DHT22;8305;-33.882;151.134;2023-01-26T12:34:49;23.10;99.90
16392;DHT22;8305;-33.882;151.134;2023-01-26T12:37:42;23.10;99.90
16392;DHT22;8305;-33.882;151.134;2023-01-26T12:40:25;23.10;99.90
16392;DHT22;8305;-33.882;151.134;2023-01-26T12:43:12;23.10;99.90
16392;DHT22;8305;-33.882;151.134;2023-01-26T12:45:48;23.10;99.90
16392;DHT22;8305;-33.882;151.134;2023-01-26T12:48:23;23.10;99.90
16392;DHT22;8305;-33.882;151.134;2023-01-26T12:50:58;23.10;99.90
16392;DHT22;8305;-33.882;151.134;2023-01-26T12:53:34;23.10;99.90
16392;DHT22;8305;-33.882;151.134;2023-01-26T12:56:11;23.10;99.90
16392;DHT22;8305;-33.882;151.134;2023-01-26T12:58:45;23.10;99.90
16392;DHT22;8305;-33.882;151.134;2023-01-26T13:01:19;23.10;99.90
16392;DHT22;8305;-33.882;151.134;2023-01-26T13:03:54;23.10;99.90
16392;DHT22;8305;-33.882;151.134;2023-01-26T13:06:26;23.10;99.90
16392;DHT22;8305;-33.882;151.134;2023-01-26T13:09:02;23.10;99.90
16392;DHT22;8305;-33.882;151.134;2023-01-26T13:11:48;23.10;99.90
16392;DHT22;8305;-33.882;151.134;2023-01-26T13:14:36;23.00;99.90
16392;DHT22;8305;-33.882;151.134;2023-01-26T13:17:45;23.10;99.90
16392;DHT22;8305;-33.882;151.134;2023-01-26T13:20:40;23.00;99.90
16392;DHT22;8305;-33.882;151.134;2023-01-26T13:23:36;23.10;99.90
16392;DHT22;8305;-33.882;151.134;2023-01-26T13:26:20;23.00;99.90
16392;DHT22;8305;-33.882;151.134;2023-01-26T13:28:51;23.00;99.90
16392;DHT22;8305;-33.882;151.134;2023-01-26T13:31:44;23.00;99.90
16392;DHT22;8305;-33.882;151.134;2023-01-26T13:34:18;23.00;99.90
16392;DHT22;8305;-33.882;151.134;2023-01-26T13:36:50;23.00;99.90
16392;DHT22;8305;-33.882;151.134;2023-01-26T13:39:28;23.10;99.90
16392;DHT22;8305;-33.882;151.134;2023-01-26T13:42:00;23.10;99.90
16392;DHT22;8305;-33.882;151.134;2023-01-26T13:44:37;23.10;99.90
16392;DHT22;8305;-33.882;151.134;2023-01-26T13:47:14;23.10;99.90
16392;DHT22;8305;-33.882;151.134;2023-01-26T13:49:47;23.10;99.90
16392;DHT22;8305;-33.882;151.134;2023-01-26T13:52:20;23.10;99.90
16392;DHT22;8305;-33.882;151.134;2023-01-26T13:54:53;23.10;99.90
16392;DHT22;8305;-33.882;151.134;2023-01-26T13:57:25;23.10;99.90
16392;DHT22;8305;-33.882;151.134;2023-01-26T13:59:57;23.10;99.90
16392;DHT22;8305;-33.882;151.134;2023-01-26T14:02:31;23.10;99.90
16392;DHT22;8305;-33.882;151.134;2023-01-26T14:05:03;23.10;99.90
16392;DHT22;8305;-33.882;151.134;2023-01-26T14:07:37;23.10;99.90
16392;DHT22;8305;-33.882;151.134;2023-01-26T14:10:15;23.10;99.90
16392;DHT22;8305;-33.882;151.134;2023-01-26T14:12:51;23.10;99.90
16392;DHT22;8305;-33.882;151.134;2023-01-26T14:15:25;23.10;99.90
16392;DHT22;8305;-33.882;151.134;2023-01-26T14:17:59;23.20;99.90
16392;DHT22;8305;-33.882;151.134;2023-01-26T14:20:32;23.20;99.90
16392;DHT22;8305;-33.882;151.134;2023-01-26T14:23:12;23.20;99.90
16392;DHT22;8305;-33.882;151.134;2023-01-26T14:25:45;23.20;99.90
16392;DHT22;8305;-33.882;151.134;2023-01-26T14:28:19;23.20;99.90
16392;DHT22;8305;-33.882;151.134;2023-01-26T14:30:53;23.20;99.90
16392;DHT22;8305;-33.882;151.134;2023-01-26T14:33:27;23.20;99.90
16392;DHT22;8305;-33.882;151.134;2023-01-26T14:36:00;23.20;99.90
16392;DHT22;8305;-33.882;151.134;2023-01-26T14:38:39;23.20;99.90
16392;DHT22;8305;-33.882;151.134;2023-01-26T14:41:14;23.20;99.90
16392;DHT22;8305;-33.882;151.134;2023-01-26T14:43:47;23.10;99.90
16392;DHT22;8305;-33.882;151.134;2023-01-26T14:46:22;23.20;99.90
16392;DHT22;8305;-33.882;151.134;2023-01-26T14:49:00;23.10;99.90
16392;DHT22;8305;-33.882;151.134;2023-01-26T14:51:33;23.20;99.90
16392;DHT22;8305;-33.882;151.134;2023-01-26T14:54:08;23.10;99.90
16392;DHT22;8305;-33.882;151.134;2023-01-26T14:56:41;23.10;99.90
16392;DHT22;8305;-33.882;151.134;2023-01-26T14:59:22;23.10;99.90
16392;DHT22;8305;-33.882;151.134;2023-01-26T15:02:08;23.10;99.90
16392;DHT22;8305;-33.882;151.134;2023-01-26T15:04:47;23.10;99.90
16392;DHT22;8305;-33.882;151.134;2023-01-26T15:07:34;23.10;99.90
16392;DHT22;8305;-33.882;151.134;2023-01-26T15:10:27;23.10;99.90
16392;DHT22;8305;-33.882;151.134;2023-01-26T15:13:00;23.10;99.90
16392;DHT22;8305;-33.882;151.134;2023-01-26T15:15:34;23.10;99.90
16392;DHT22;8305;-33.882;151.134;2023-01-26T15:18:16;23.10;99.90
16392;DHT22;8305;-33.882;151.134;2023-01-26T15:20:55;23.10;99.90
16392;DHT22;8305;-33.882;151.134;2023-01-26T15:23:29;23.10;99.90
16392;DHT22;8305;-33.882;151.134;2023-01-26T15:26:08;23.10;99.90
16392;DHT22;8305;-33.882;151.134;2023-01-26T15:28:39;23.10;99.90
16392;DHT22;8305;-33.882;151.134;2023-01-26T15:31:28;23.10;99.90
16392;DHT22;8305;-33.882;151.134;2023-01-26T15:34:00;23.00;99.90
16392;DHT22;8305;-33.882;151.134;2023-01-26T15:36:47;23.10;99.90
16392;DHT22;8305;-33.882;151.134;2023-01-26T15:39:19;23.10;99.90
16392;DHT22;8305;-33.882;151.134;2023-01-26T15:42:06;23.10;99.90
16392;DHT22;8305;-33.882;151.134;2023-01-26T15:44:41;23.00;99.90
16392;DHT22;8305;-33.882;151.134;2023-01-26T15:47:12;23.00;99.90
16392;DHT22;8305;-33.882;151.134;2023-01-26T15:49:43;23.10;99.90
16392;DHT22;8305;-33.882;151.134;2023-01-26T15:52:16;23.00;99.90
16392;DHT22;8305;-33.882;151.134;2023-01-26T15:54:47;23.00;99.90
16392;DHT22;8305;-33.882;151.134;2023-01-26T15:57:19;23.00;99.90
16392;DHT22;8305;-33.882;151.134;2023-01-26T15:59:50;23.00;99.90
16392;DHT22;8305;-33.882;151.134;2023-01-26T16:02:21;23.00;99.90
16392;DHT22;8305;-33.882;151.134;2023-01-26T16:04:52;23.00;99.90
16392;DHT22;8305;-33.882;151.134;2023-01-26T16:07:25;23.00;99.90
16392;DHT22;8305;-33.882;151.134;2023-01-26T16:09:56;23.00;99.90
16392;DHT22;8305;-33.882;151.134;2023-01-26T16:12:27;22.90;99.90
16392;DHT22;8305;-33.882;151.134;2023-01-26T16:14:58;23.00;99.90
16392;DHT22;8305;-33.882;151.134;2023-01-26T16:17:29;22.90;99.90
16392;DHT22;8305;-33.882;151.134;2023-01-26T16:20:00;22.90;99.90
16392;DHT22;8305;-33.882;151.134;2023-01-26T16:22:34;22.90;99.90
16392;DHT22;8305;-33.882;151.134;2023-01-26T16:25:20;22.80;99.90
16392;DHT22;8305;-33.882;151.134;2023-01-26T16:27:51;22.80;99.90
16392;DHT22;8305;-33.882;151.134;2023-01-26T16:30:23;22.80;99.90
16392;DHT22;8305;-33.882;151.134;2023-01-26T16:32:54;22.70;99.90
16392;DHT22;8305;-33.882;151.134;2023-01-26T16:35:26;22.70;99.90
16392;DHT22;8305;-33.882;151.134;2023-01-26T16:37:59;22.70;99.90
16392;DHT22;8305;-33.882;151.134;2023-01-26T16:40:31;22.60;99.90
16392;DHT22;8305;-33.882;151.134;2023-01-26T16:43:02;22.60;99.90
16392;DHT22;8305;-33.882;151.134;2023-01-26T16:45:33;22.70;99.90
16392;DHT22;8305;-33.882;151.134;2023-01-26T16:48:11;22.60;99.90
16392;DHT22;8305;-33.882;151.134;2023-01-26T16:50:43;22.60;99.90
16392;DHT22;8305;-33.882;151.134;2023-01-26T16:53:19;22.70;99.90
16392;DHT22;8305;-33.882;151.134;2023-01-26T16:55:51;22.60;99.90
16392;DHT22;8305;-33.882;151.134;2023-01-26T16:58:22;22.70;99.90
16392;DHT22;8305;-33.882;151.134;2023-01-26T17:00:54;22.70;99.90
16392;DHT22;8305;-33.882;151.134;2023-01-26T17:03:25;22.70;99.90
16392;DHT22;8305;-33.882;151.134;2023-01-26T17:05:56;22.60;99.90
16392;DHT22;8305;-33.882;151.134;2023-01-26T17:08:30;22.60;99.90
16392;DHT22;8305;-33.882;151.134;2023-01-26T17:11:01;22.60;99.90
16392;DHT22;8305;-33.882;151.134;2023-01-26T17:13:32;22.50;99.90
16392;DHT22;8305;-33.882;151.134;2023-01-26T17:16:03;22.50;99.90
16392;DHT22;8305;-33.882;151.134;2023-01-26T17:18:34;22.50;99.90
16392;DHT22;8305;-33.882;151.134;2023-01-26T17:21:05;22.50;99.90
16392;DHT22;8305;-33.882;151.134;2023-01-26T17:23:38;22.50;99.90
16392;DHT22;8305;-33.882;151.134;2023-01-26T17:26:12;22.40;99.90
16392;DHT22;8305;-33.882;151.134;2023-01-26T17:28:47;22.40;99.90
16392;DHT22;8305;-33.882;151.134;2023-01-26T17:31:19;22.40;99.90
16392;DHT22;8305;-33.882;151.134;2023-01-26T17:33:51;22.30;99.90
16392;DHT22;8305;-33.882;151.134;2023-01-26T17:36:22;22.30;99.90
16392;DHT22;8305;-33.882;151.134;2023-01-26T17:38:55;22.30;99.90
16392;DHT22;8305;-33.882;151.134;2023-01-26T17:41:25;22.30;99.90
16392;DHT22;8305;-33.882;151.134;2023-01-26T17:43:56;22.20;99.90
16392;DHT22;8305;-33.882;151.134;2023-01-26T17:46:27;22.20;99.90
16392;DHT22;8305;-33.882;151.134;2023-01-26T17:48:58;22.20;99.90
16392;DHT22;8305;-33.882;151.134;2023-01-26T17:51:29;22.20;99.90
16392;DHT22;8305;-33.882;151.134;2023-01-26T17:54:02;22.10;99.90
16392;DHT22;8305;-33.882;151.134;2023-01-26T17:56:33;22.10;99.90
16392;DHT22;8305;-33.882;151.134;2023-01-26T17:59:04;22.10;99.90
16392;DHT22;8305;-33.882;151.134;2023-01-26T18:01:35;22.10;99.90
16392;DHT22;8305;-33.882;151.134;2023-01-26T18:04:06;22.00;99.90
16392;DHT22;8305;-33.882;151.134;2023-01-26T18:06:37;22.00;99.90
16392;DHT22;8305;-33.882;151.134;2023-01-26T18:09:19;22.00;99.90
16392;DHT22;8305;-33.882;151.134;2023-01-26T18:11:50;22.00;99.90
16392;DHT22;8305;-33.882;151.134;2023-01-26T18:14:21;22.00;99.90
16392;DHT22;8305;-33.882;151.134;2023-01-26T18:16:51;21.90;99.90
16392;DHT22;8305;-33.882;151.134;2023-01-26T18:19:22;21.90;99.90
16392;DHT22;8305;-33.882;151.134;2023-01-26T18:21:53;21.90;99.90
16392;DHT22;8305;-33.882;151.134;2023-01-26T18:24:26;21.90;99.90
16392;DHT22;8305;-33.882;151.134;2023-01-26T18:26:57;21.90;99.90
16392;DHT22;8305;-33.882;151.134;2023-01-26T18:29:28;21.90;99.90
16392;DHT22;8305;-33.882;151.134;2023-01-26T18:31:59;21.80;99.90
16392;DHT22;8305;-33.882;151.134;2023-01-26T18:34:30;21.90;99.90
16392;DHT22;8305;-33.882;151.134;2023-01-26T18:37:01;21.80;99.90
16392;DHT22;8305;-33.882;151.134;2023-01-26T18:39:34;21.80;99.90
16392;DHT22;8305;-33.882;151.134;2023-01-26T18:42:05;21.90;99.90
16392;DHT22;8305;-33.882;151.134;2023-01-26T18:44:37;21.80;99.90
16392;DHT22;8305;-33.882;151.134;2023-01-26T18:47:08;21.80;99.90
16392;DHT22;8305;-33.882;151.134;2023-01-26T18:49:38;21.80;99.90
16392;DHT22;8305;-33.882;151.134;2023-01-26T18:52:09;21.80;99.90
16392;DHT22;8305;-33.882;151.134;2023-01-26T18:54:42;21.80;99.90
16392;DHT22;8305;-33.882;151.134;2023-01-26T18:57:14;21.80;99.90
16392;DHT22;8305;-33.882;151.134;2023-01-26T18:59:45;21.80;99.90
16392;DHT22;8305;-33.882;151.134;2023-01-26T19:02:16;21.80;99.90
16392;DHT22;8305;-33.882;151.134;2023-01-26T19:04:47;21.80;99.90
16392;DHT22;8305;-33.882;151.134;2023-01-26T19:07:20;21.80;99.90
16392;DHT22;8305;-33.882;151.134;2023-01-26T19:09:53;21.80;99.90
16392;DHT22;8305;-33.882;151.134;2023-01-26T19:12:24;21.80;99.90